sensor_id;sensor_type;location;lat;lon;timestamp;P1;durP1;ratioP1;P2;durP2;ratioP2
22040;SDS011;11184;52.444;13.578;2022-10-19T00:01:32;7.75;;;4.15;;
22040;SDS011;11184;52.444;13.578;2022-10-19T00:04:19;13.10;;;4.90;;
22040;SDS011;11184;52.444;13.578;2022-10-19T00:07:03;6.72;;;3.95;;
22040;SDS011;11184;52.444;13.578;2022-10-19T00:09:48;5.25;;;3.85;;
22040;SDS011;11184;52.444;13.578;2022-10-19T00:12:32;7.45;;;5.13;;
22040;SDS011;11184;52.444;13.578;2022-10-19T00:15:17;7.43;;;4.68;;
22040;SDS011;11184;52.444;13.578;2022-10-19T00:18:02;5.70;;;4.72;;
22040;SDS011;11184;52.444;13.578;2022-10-19T00:20:47;18.05;;;4.57;;
22040;SDS011;11184;52.444;13.578;2022-10-19T00:23:31;6.35;;;3.60;;
22040;SDS011;11184;52.444;13.578;2022-10-19T00:26:16;7.80;;;4.25;;
22040;SDS011;11184;52.444;13.578;2022-10-19T00:29:02;10.43;;;4.50;;
22040;SDS011;11184;52.444;13.578;2022-10-19T00:31:48;12.38;;;5.13;;
22040;SDS011;11184;52.444;13.578;2022-10-19T00:34:33;11.68;;;4.18;;
22040;SDS011;11184;52.444;13.578;2022-10-19T00:37:17;9.07;;;4.25;;
22040;SDS011;11184;52.444;13.578;2022-10-19T00:40:02;8.20;;;4.03;;
22040;SDS011;11184;52.444;13.578;2022-10-19T00:42:52;10.52;;;3.80;;
22040;SDS011;11184;52.444;13.578;2022-10-19T00:45:37;6.03;;;3.05;;
22040;SDS011;11184;52.444;13.578;2022-10-19T00:48:30;11.18;;;4.30;;
22040;SDS011;11184;52.444;13.578;2022-10-19T00:51:15;9.05;;;4.32;;
22040;SDS011;11184;52.444;13.578;2022-10-19T00:54:00;9.07;;;3.30;;
22040;SDS011;11184;52.444;13.578;2022-10-19T00:56:47;8.77;;;4.03;;
22040;SDS011;11184;52.444;13.578;2022-10-19T00:59:32;5.63;;;3.25;;
22040;SDS011;11184;52.444;13.578;2022-10-19T01:02:17;11.93;;;4.28;;
22040;SDS011;11184;52.444;13.578;2022-10-19T01:05:02;6.97;;;3.13;;
22040;SDS011;11184;52.444;13.578;2022-10-19T01:07:47;10.60;;;3.00;;
22040;SDS011;11184;52.444;13.578;2022-10-19T01:10:44;10.00;;;2.90;;
22040;SDS011;11184;52.444;13.578;2022-10-19T01:13:48;9.68;;;3.47;;
22040;SDS011;11184;52.444;13.578;2022-10-19T01:16:41;7.50;;;3.35;;
22040;SDS011;11184;52.444;13.578;2022-10-19T01:19:38;4.75;;;2.40;;
22040;SDS011;11184;52.444;13.578;2022-10-19T01:28:51;6.47;;;3.63;;
22040;SDS011;11184;52.444;13.578;2022-10-19T01:31:54;6.38;;;2.33;;
22040;SDS011;11184;52.444;13.578;2022-10-19T01:34:44;8.45;;;2.58;;
22040;SDS011;11184;52.444;13.578;2022-10-19T01:40:29;6.07;;;2.22;;
22040;SDS011;11184;52.444;13.578;2022-10-19T01:43:22;13.85;;;2.67;;
22040;SDS011;11184;52.444;13.578;2022-10-19T01:46:10;7.20;;;2.75;;
22040;SDS011;11184;52.444;13.578;2022-10-19T01:48:57;8.90;;;2.28;;
22040;SDS011;11184;52.444;13.578;2022-10-19T01:51:46;10.68;;;2.28;;
22040;SDS011;11184;52.444;13.578;2022-10-19T01:54:35;14.32;;;2.92;;
22040;SDS011;11184;52.444;13.578;2022-10-19T01:57:23;3.75;;;1.73;;
22040;SDS011;11184;52.444;13.578;2022-10-19T02:00:09;8.05;;;1.92;;
22040;SDS011;11184;52.444;13.578;2022-10-19T02:02:55;4.82;;;2.00;;
22040;SDS011;11184;52.444;13.578;2022-10-19T02:05:39;9.05;;;2.75;;
22040;SDS011;11184;52.444;13.578;2022-10-19T02:08:29;9.13;;;2.67;;
22040;SDS011;11184;52.444;13.578;2022-10-19T02:11:15;6.70;;;1.90;;
22040;SDS011;11184;52.444;13.578;2022-10-19T02:14:03;4.95;;;2.45;;
22040;SDS011;11184;52.444;13.578;2022-10-19T02:16:50;3.50;;;2.15;;
22040;SDS011;11184;52.444;13.578;2022-10-19T02:19:37;9.15;;;2.10;;
22040;SDS011;11184;52.444;13.578;2022-10-19T02:22:22;11.27;;;2.75;;
22040;SDS011;11184;52.444;13.578;2022-10-19T02:25:06;7.93;;;2.00;;
22040;SDS011;11184;52.444;13.578;2022-10-19T02:27:51;5.93;;;2.35;;
22040;SDS011;11184;52.444;13.578;2022-10-19T02:30:36;6.43;;;2.50;;
22040;SDS011;11184;52.444;13.578;2022-10-19T02:33:21;6.15;;;2.63;;
22040;SDS011;11184;52.444;13.578;2022-10-19T02:36:05;8.57;;;2.83;;
22040;SDS011;11184;52.444;13.578;2022-10-19T02:38:50;5.97;;;2.22;;
22040;SDS011;11184;52.444;13.578;2022-10-19T02:41:36;5.28;;;1.95;;
22040;SDS011;11184;52.444;13.578;2022-10-19T02:44:25;5.82;;;2.65;;
22040;SDS011;11184;52.444;13.578;2022-10-19T02:47:14;14.15;;;3.50;;
22040;SDS011;11184;52.444;13.578;2022-10-19T02:50:03;4.13;;;2.17;;
22040;SDS011;11184;52.444;13.578;2022-10-19T02:52:48;9.27;;;2.38;;
22040;SDS011;11184;52.444;13.578;2022-10-19T02:55:32;5.88;;;2.38;;
22040;SDS011;11184;52.444;13.578;2022-10-19T02:58:18;7.35;;;2.08;;
22040;SDS011;11184;52.444;13.578;2022-10-19T03:01:02;7.13;;;2.25;;
22040;SDS011;11184;52.444;13.578;2022-10-19T03:03:47;4.55;;;2.00;;
22040;SDS011;11184;52.444;13.578;2022-10-19T03:06:31;6.15;;;1.95;;
22040;SDS011;11184;52.444;13.578;2022-10-19T03:09:16;6.00;;;1.88;;
22040;SDS011;11184;52.444;13.578;2022-10-19T03:12:01;7.57;;;2.45;;
22040;SDS011;11184;52.444;13.578;2022-10-19T03:14:46;6.85;;;2.83;;
22040;SDS011;11184;52.444;13.578;2022-10-19T03:17:30;7.88;;;1.88;;
22040;SDS011;11184;52.444;13.578;2022-10-19T03:20:15;4.00;;;1.98;;
22040;SDS011;11184;52.444;13.578;2022-10-19T03:22:59;8.18;;;2.13;;
22040;SDS011;11184;52.444;13.578;2022-10-19T03:25:44;5.65;;;2.40;;
22040;SDS011;11184;52.444;13.578;2022-10-19T03:28:30;4.97;;;2.13;;
22040;SDS011;11184;52.444;13.578;2022-10-19T03:31:14;8.30;;;2.25;;
22040;SDS011;11184;52.444;13.578;2022-10-19T03:33:59;6.93;;;2.40;;
22040;SDS011;11184;52.444;13.578;2022-10-19T03:36:44;5.90;;;2.45;;
22040;SDS011;11184;52.444;13.578;2022-10-19T03:39:29;4.75;;;1.98;;
22040;SDS011;11184;52.444;13.578;2022-10-19T03:42:14;6.18;;;2.05;;
22040;SDS011;11184;52.444;13.578;2022-10-19T03:44:58;4.80;;;2.17;;
22040;SDS011;11184;52.444;13.578;2022-10-19T03:47:47;12.70;;;2.25;;
22040;SDS011;11184;52.444;13.578;2022-10-19T03:50:32;4.45;;;2.17;;
22040;SDS011;11184;52.444;13.578;2022-10-19T03:53:16;7.82;;;2.40;;
22040;SDS011;11184;52.444;13.578;2022-10-19T03:56:05;6.25;;;1.88;;
22040;SDS011;11184;52.444;13.578;2022-10-19T03:58:50;8.93;;;1.73;;
22040;SDS011;11184;52.444;13.578;2022-10-19T04:01:36;8.25;;;0.77;;
22040;SDS011;11184;52.444;13.578;2022-10-19T04:04:21;1.48;;;0.65;;
22040;SDS011;11184;52.444;13.578;2022-10-19T04:07:05;5.55;;;1.50;;
22040;SDS011;11184;52.444;13.578;2022-10-19T04:09:50;2.97;;;1.30;;
22040;SDS011;11184;52.444;13.578;2022-10-19T04:12:35;2.17;;;0.68;;
22040;SDS011;11184;52.444;13.578;2022-10-19T04:15:19;5.28;;;0.70;;
22040;SDS011;11184;52.444;13.578;2022-10-19T04:18:04;1.90;;;0.65;;
22040;SDS011;11184;52.444;13.578;2022-10-19T04:20:53;2.53;;;0.82;;
22040;SDS011;11184;52.444;13.578;2022-10-19T04:23:38;3.22;;;0.90;;
22040;SDS011;11184;52.444;13.578;2022-10-19T04:26:23;2.70;;;0.70;;
22040;SDS011;11184;52.444;13.578;2022-10-19T04:29:08;8.35;;;0.85;;
22040;SDS011;11184;52.444;13.578;2022-10-19T04:31:53;1.77;;;0.95;;
22040;SDS011;11184;52.444;13.578;2022-10-19T04:34:37;4.55;;;1.15;;
22040;SDS011;11184;52.444;13.578;2022-10-19T04:37:22;2.58;;;1.00;;
22040;SDS011;11184;52.444;13.578;2022-10-19T04:40:07;4.03;;;1.30;;
22040;SDS011;11184;52.444;13.578;2022-10-19T04:42:52;2.45;;;1.13;;
22040;SDS011;11184;52.444;13.578;2022-10-19T04:45:36;5.47;;;0.88;;
22040;SDS011;11184;52.444;13.578;2022-10-19T04:48:21;3.35;;;1.00;;
22040;SDS011;11184;52.444;13.578;2022-10-19T04:51:05;3.25;;;0.82;;
22040;SDS011;11184;52.444;13.578;2022-10-19T04:53:51;1.95;;;0.65;;
22040;SDS011;11184;52.444;13.578;2022-10-19T04:56:36;3.58;;;0.88;;
22040;SDS011;11184;52.444;13.578;2022-10-19T04:59:20;4.18;;;1.00;;
22040;SDS011;11184;52.444;13.578;2022-10-19T05:02:05;2.45;;;1.10;;
22040;SDS011;11184;52.444;13.578;2022-10-19T05:04:49;3.50;;;0.57;;
22040;SDS011;11184;52.444;13.578;2022-10-19T05:07:34;3.85;;;1.17;;
22040;SDS011;11184;52.444;13.578;2022-10-19T05:10:19;1.95;;;1.50;;
22040;SDS011;11184;52.444;13.578;2022-10-19T05:13:04;2.92;;;0.73;;
22040;SDS011;11184;52.444;13.578;2022-10-19T05:15:54;7.45;;;0.80;;
22040;SDS011;11184;52.444;13.578;2022-10-19T05:18:39;1.58;;;0.60;;
22040;SDS011;11184;52.444;13.578;2022-10-19T05:21:24;3.33;;;0.70;;
22040;SDS011;11184;52.444;13.578;2022-10-19T05:24:10;7.32;;;1.13;;
22040;SDS011;11184;52.444;13.578;2022-10-19T05:26:56;6.65;;;1.13;;
22040;SDS011;11184;52.444;13.578;2022-10-19T05:29:40;3.72;;;1.10;;
22040;SDS011;11184;52.444;13.578;2022-10-19T05:32:25;4.38;;;1.08;;
22040;SDS011;11184;52.444;13.578;2022-10-19T05:35:10;2.15;;;1.27;;
22040;SDS011;11184;52.444;13.578;2022-10-19T05:37:55;4.03;;;1.20;;
22040;SDS011;11184;52.444;13.578;2022-10-19T05:40:43;6.25;;;1.55;;
22040;SDS011;11184;52.444;13.578;2022-10-19T05:43:29;6.57;;;1.40;;
22040;SDS011;11184;52.444;13.578;2022-10-19T05:46:14;3.88;;;0.85;;
22040;SDS011;11184;52.444;13.578;2022-10-19T05:49:02;6.72;;;1.25;;
22040;SDS011;11184;52.444;13.578;2022-10-19T05:51:47;2.35;;;0.70;;
22040;SDS011;11184;52.444;13.578;2022-10-19T05:54:32;1.60;;;0.60;;
22040;SDS011;11184;52.444;13.578;2022-10-19T05:57:18;2.80;;;1.13;;
22040;SDS011;11184;52.444;13.578;2022-10-19T06:00:03;6.07;;;1.02;;
22040;SDS011;11184;52.444;13.578;2022-10-19T06:02:48;6.75;;;1.98;;
22040;SDS011;11184;52.444;13.578;2022-10-19T06:05:34;4.93;;;0.90;;
22040;SDS011;11184;52.444;13.578;2022-10-19T06:08:20;4.70;;;1.23;;
22040;SDS011;11184;52.444;13.578;2022-10-19T06:13:57;4.78;;;1.30;;
22040;SDS011;11184;52.444;13.578;2022-10-19T06:16:42;4.18;;;1.50;;
22040;SDS011;11184;52.444;13.578;2022-10-19T06:19:28;11.35;;;1.17;;
22040;SDS011;11184;52.444;13.578;2022-10-19T06:22:13;6.20;;;1.58;;
22040;SDS011;11184;52.444;13.578;2022-10-19T06:24:57;7.35;;;1.10;;
22040;SDS011;11184;52.444;13.578;2022-10-19T06:27:42;7.95;;;1.30;;
22040;SDS011;11184;52.444;13.578;2022-10-19T06:30:27;3.50;;;1.25;;
22040;SDS011;11184;52.444;13.578;2022-10-19T06:33:12;2.67;;;1.30;;
22040;SDS011;11184;52.444;13.578;2022-10-19T06:38:53;4.28;;;1.05;;
22040;SDS011;11184;52.444;13.578;2022-10-19T06:41:39;3.55;;;0.98;;
22040;SDS011;11184;52.444;13.578;2022-10-19T06:44:23;4.38;;;1.45;;
22040;SDS011;11184;52.444;13.578;2022-10-19T06:47:08;6.03;;;1.70;;
22040;SDS011;11184;52.444;13.578;2022-10-19T06:49:52;4.40;;;1.25;;
22040;SDS011;11184;52.444;13.578;2022-10-19T06:52:37;4.97;;;1.63;;
22040;SDS011;11184;52.444;13.578;2022-10-19T06:55:23;9.32;;;1.55;;
22040;SDS011;11184;52.444;13.578;2022-10-19T06:58:08;3.78;;;0.95;;
22040;SDS011;11184;52.444;13.578;2022-10-19T07:00:56;4.43;;;1.38;;
22040;SDS011;11184;52.444;13.578;2022-10-19T07:03:41;4.32;;;0.88;;
22040;SDS011;11184;52.444;13.578;2022-10-19T07:06:26;6.57;;;1.10;;
22040;SDS011;11184;52.444;13.578;2022-10-19T07:09:11;4.95;;;1.20;;
22040;SDS011;11184;52.444;13.578;2022-10-19T07:11:56;7.05;;;1.50;;
22040;SDS011;11184;52.444;13.578;2022-10-19T07:14:40;2.47;;;1.38;;
22040;SDS011;11184;52.444;13.578;2022-10-19T07:17:25;3.45;;;0.70;;
22040;SDS011;11184;52.444;13.578;2022-10-19T07:20:09;3.50;;;1.67;;
22040;SDS011;11184;52.444;13.578;2022-10-19T07:22:54;3.60;;;1.52;;
22040;SDS011;11184;52.444;13.578;2022-10-19T07:25:39;4.53;;;1.13;;
22040;SDS011;11184;52.444;13.578;2022-10-19T07:28:23;3.33;;;1.20;;
22040;SDS011;11184;52.444;13.578;2022-10-19T07:31:09;4.35;;;0.90;;
22040;SDS011;11184;52.444;13.578;2022-10-19T07:33:55;6.32;;;1.63;;
22040;SDS011;11184;52.444;13.578;2022-10-19T07:36:42;2.53;;;0.63;;
22040;SDS011;11184;52.444;13.578;2022-10-19T07:39:27;8.38;;;1.30;;
22040;SDS011;11184;52.444;13.578;2022-10-19T07:42:12;4.03;;;1.00;;
22040;SDS011;11184;52.444;13.578;2022-10-19T07:44:56;6.50;;;1.38;;
22040;SDS011;11184;52.444;13.578;2022-10-19T07:47:41;7.03;;;0.98;;
22040;SDS011;11184;52.444;13.578;2022-10-19T07:50:26;5.28;;;1.92;;
22040;SDS011;11184;52.444;13.578;2022-10-19T07:53:10;7.32;;;0.90;;
22040;SDS011;11184;52.444;13.578;2022-10-19T07:55:55;1.50;;;0.60;;
22040;SDS011;11184;52.444;13.578;2022-10-19T07:58:45;3.35;;;0.77;;
22040;SDS011;11184;52.444;13.578;2022-10-19T08:01:31;7.15;;;1.92;;
22040;SDS011;11184;52.444;13.578;2022-10-19T08:04:16;5.70;;;1.02;;
22040;SDS011;11184;52.444;13.578;2022-10-19T08:07:01;7.22;;;1.30;;
22040;SDS011;11184;52.444;13.578;2022-10-19T08:09:45;5.45;;;1.05;;
22040;SDS011;11184;52.444;13.578;2022-10-19T08:12:30;2.42;;;0.90;;
22040;SDS011;11184;52.444;13.578;2022-10-19T08:15:14;3.95;;;0.77;;
22040;SDS011;11184;52.444;13.578;2022-10-19T08:17:59;5.15;;;0.80;;
22040;SDS011;11184;52.444;13.578;2022-10-19T08:20:44;4.10;;;1.45;;
22040;SDS011;11184;52.444;13.578;2022-10-19T08:23:28;3.92;;;1.48;;
22040;SDS011;11184;52.444;13.578;2022-10-19T08:26:13;2.85;;;1.17;;
22040;SDS011;11184;52.444;13.578;2022-10-19T08:28:58;4.95;;;1.08;;
22040;SDS011;11184;52.444;13.578;2022-10-19T08:31:44;5.47;;;1.17;;
22040;SDS011;11184;52.444;13.578;2022-10-19T08:34:29;2.80;;;0.88;;
22040;SDS011;11184;52.444;13.578;2022-10-19T08:37:15;2.88;;;0.93;;
22040;SDS011;11184;52.444;13.578;2022-10-19T08:40:00;8.32;;;0.98;;
22040;SDS011;11184;52.444;13.578;2022-10-19T08:42:59;5.05;;;1.27;;
22040;SDS011;11184;52.444;13.578;2022-10-19T08:45:47;1.70;;;0.75;;
22040;SDS011;11184;52.444;13.578;2022-10-19T08:48:37;4.53;;;1.00;;
22040;SDS011;11184;52.444;13.578;2022-10-19T08:51:25;1.75;;;1.00;;
22040;SDS011;11184;52.444;13.578;2022-10-19T08:54:13;5.53;;;1.17;;
22040;SDS011;11184;52.444;13.578;2022-10-19T08:57:04;3.58;;;1.20;;
22040;SDS011;11184;52.444;13.578;2022-10-19T08:59:53;1.90;;;0.80;;
22040;SDS011;11184;52.444;13.578;2022-10-19T09:02:48;6.53;;;1.15;;
22040;SDS011;11184;52.444;13.578;2022-10-19T09:05:56;5.57;;;1.35;;
22040;SDS011;11184;52.444;13.578;2022-10-19T09:08:45;4.30;;;1.30;;
22040;SDS011;11184;52.444;13.578;2022-10-19T09:11:34;2.35;;;1.33;;
22040;SDS011;11184;52.444;13.578;2022-10-19T09:14:24;6.00;;;1.17;;
22040;SDS011;11184;52.444;13.578;2022-10-19T09:17:11;4.25;;;1.30;;
22040;SDS011;11184;52.444;13.578;2022-10-19T09:20:00;4.95;;;1.23;;
22040;SDS011;11184;52.444;13.578;2022-10-19T09:22:48;6.47;;;1.88;;
22040;SDS011;11184;52.444;13.578;2022-10-19T09:25:34;7.00;;;1.27;;
22040;SDS011;11184;52.444;13.578;2022-10-19T09:31:16;4.05;;;1.10;;
22040;SDS011;11184;52.444;13.578;2022-10-19T09:34:04;5.40;;;1.40;;
22040;SDS011;11184;52.444;13.578;2022-10-19T09:36:51;4.45;;;1.33;;
22040;SDS011;11184;52.444;13.578;2022-10-19T09:39:36;9.82;;;2.00;;
22040;SDS011;11184;52.444;13.578;2022-10-19T09:42:28;7.88;;;1.45;;
22040;SDS011;11184;52.444;13.578;2022-10-19T09:45:15;5.53;;;1.38;;
22040;SDS011;11184;52.444;13.578;2022-10-19T09:48:01;5.20;;;1.05;;
22040;SDS011;11184;52.444;13.578;2022-10-19T09:50:49;2.70;;;0.77;;
22040;SDS011;11184;52.444;13.578;2022-10-19T09:53:35;8.02;;;1.13;;
22040;SDS011;11184;52.444;13.578;2022-10-19T09:56:21;3.60;;;0.95;;
22040;SDS011;11184;52.444;13.578;2022-10-19T09:59:10;7.38;;;0.80;;
22040;SDS011;11184;52.444;13.578;2022-10-19T10:02:08;3.90;;;0.57;;
22040;SDS011;11184;52.444;13.578;2022-10-19T10:04:55;2.88;;;0.60;;
22040;SDS011;11184;52.444;13.578;2022-10-19T10:07:40;1.70;;;0.65;;
22040;SDS011;11184;52.444;13.578;2022-10-19T10:10:36;1.92;;;0.60;;
22040;SDS011;11184;52.444;13.578;2022-10-19T10:13:22;2.97;;;0.75;;
22040;SDS011;11184;52.444;13.578;2022-10-19T10:16:09;3.03;;;0.80;;
22040;SDS011;11184;52.444;13.578;2022-10-19T10:18:55;1.92;;;0.60;;
22040;SDS011;11184;52.444;13.578;2022-10-19T10:21:47;2.13;;;0.60;;
22040;SDS011;11184;52.444;13.578;2022-10-19T10:24:32;2.95;;;0.55;;
22040;SDS011;11184;52.444;13.578;2022-10-19T10:30:34;4.47;;;0.57;;
22040;SDS011;11184;52.444;13.578;2022-10-19T10:33:21;1.60;;;0.47;;
22040;SDS011;11184;52.444;13.578;2022-10-19T10:36:10;1.30;;;0.55;;
22040;SDS011;11184;52.444;13.578;2022-10-19T10:38:59;2.53;;;0.50;;
22040;SDS011;11184;52.444;13.578;2022-10-19T10:41:46;1.63;;;0.45;;
22040;SDS011;11184;52.444;13.578;2022-10-19T10:44:31;2.42;;;0.50;;
22040;SDS011;11184;52.444;13.578;2022-10-19T10:47:19;2.13;;;0.60;;
22040;SDS011;11184;52.444;13.578;2022-10-19T10:50:04;4.25;;;0.65;;
22040;SDS011;11184;52.444;13.578;2022-10-19T10:52:57;5.78;;;0.98;;
22040;SDS011;11184;52.444;13.578;2022-10-19T10:55:42;1.27;;;0.60;;
22040;SDS011;11184;52.444;13.578;2022-10-19T10:58:40;0.63;;;0.40;;
22040;SDS011;11184;52.444;13.578;2022-10-19T11:01:27;2.42;;;0.70;;
22040;SDS011;11184;52.444;13.578;2022-10-19T11:04:15;4.05;;;0.68;;
22040;SDS011;11184;52.444;13.578;2022-10-19T11:07:24;0.38;;;0.20;;
22040;SDS011;11184;52.444;13.578;2022-10-19T11:10:13;3.33;;;0.88;;
22040;SDS011;11184;52.444;13.578;2022-10-19T11:16:17;3.53;;;0.57;;
22040;SDS011;11184;52.444;13.578;2022-10-19T11:19:16;2.90;;;0.55;;
22040;SDS011;11184;52.444;13.578;2022-10-19T11:22:08;1.45;;;0.60;;
22040;SDS011;11184;52.444;13.578;2022-10-19T11:27:54;0.90;;;0.30;;
22040;SDS011;11184;52.444;13.578;2022-10-19T11:31:17;1.20;;;0.30;;
22040;SDS011;11184;52.444;13.578;2022-10-19T11:36:44;2.20;;;0.40;;
22040;SDS011;11184;52.444;13.578;2022-10-19T11:39:48;2.25;;;0.77;;
22040;SDS011;11184;52.444;13.578;2022-10-19T11:42:39;2.97;;;0.70;;
22040;SDS011;11184;52.444;13.578;2022-10-19T11:57:14;0.35;;;0.30;;
22040;SDS011;11184;52.444;13.578;2022-10-19T12:03:01;4.95;;;0.40;;
22040;SDS011;11184;52.444;13.578;2022-10-19T12:11:30;0.85;;;0.50;;
22040;SDS011;11184;52.444;13.578;2022-10-19T12:14:19;1.58;;;0.40;;
22040;SDS011;11184;52.444;13.578;2022-10-19T12:17:11;1.02;;;0.30;;
22040;SDS011;11184;52.444;13.578;2022-10-19T12:20:04;4.82;;;0.80;;
22040;SDS011;11184;52.444;13.578;2022-10-19T12:22:50;3.72;;;0.70;;
22040;SDS011;11184;52.444;13.578;2022-10-19T12:25:35;4.22;;;0.60;;
22040;SDS011;11184;52.444;13.578;2022-10-19T12:28:32;2.80;;;0.80;;
22040;SDS011;11184;52.444;13.578;2022-10-19T12:31:17;3.08;;;0.70;;
22040;SDS011;11184;52.444;13.578;2022-10-19T12:39:59;1.65;;;1.08;;
22040;SDS011;11184;52.444;13.578;2022-10-19T12:42:48;0.93;;;0.63;;
22040;SDS011;11184;52.444;13.578;2022-10-19T12:45:38;1.75;;;0.60;;
22040;SDS011;11184;52.444;13.578;2022-10-19T12:48:24;3.25;;;0.63;;
22040;SDS011;11184;52.444;13.578;2022-10-19T12:51:13;5.85;;;1.52;;
22040;SDS011;11184;52.444;13.578;2022-10-19T12:54:06;1.50;;;0.70;;
22040;SDS011;11184;52.444;13.578;2022-10-19T12:56:53;1.40;;;0.50;;
22040;SDS011;11184;52.444;13.578;2022-10-19T12:59:38;1.85;;;0.60;;
22040;SDS011;11184;52.444;13.578;2022-10-19T13:02:24;3.65;;;0.85;;
22040;SDS011;11184;52.444;13.578;2022-10-19T13:05:18;1.45;;;0.98;;
22040;SDS011;11184;52.444;13.578;2022-10-19T13:08:03;8.18;;;0.70;;
22040;SDS011;11184;52.444;13.578;2022-10-19T13:11:02;3.92;;;1.65;;
22040;SDS011;11184;52.444;13.578;2022-10-19T13:14:03;3.47;;;0.50;;
22040;SDS011;11184;52.444;13.578;2022-10-19T13:16:56;1.40;;;0.45;;
22040;SDS011;11184;52.444;13.578;2022-10-19T13:19:41;1.00;;;0.40;;
22040;SDS011;11184;52.444;13.578;2022-10-19T13:22:26;1.45;;;0.90;;
22040;SDS011;11184;52.444;13.578;2022-10-19T13:25:19;2.25;;;0.93;;
22040;SDS011;11184;52.444;13.578;2022-10-19T13:33:39;3.65;;;1.15;;
22040;SDS011;11184;52.444;13.578;2022-10-19T13:36:25;2.70;;;0.50;;
22040;SDS011;11184;52.444;13.578;2022-10-19T13:39:11;2.67;;;0.52;;
22040;SDS011;11184;52.444;13.578;2022-10-19T13:41:56;1.10;;;0.43;;
22040;SDS011;11184;52.444;13.578;2022-10-19T13:44:42;1.35;;;0.70;;
22040;SDS011;11184;52.444;13.578;2022-10-19T13:47:34;5.07;;;1.13;;
22040;SDS011;11184;52.444;13.578;2022-10-19T13:50:22;2.97;;;0.93;;
22040;SDS011;11184;52.444;13.578;2022-10-19T13:53:20;2.60;;;1.08;;
22040;SDS011;11184;52.444;13.578;2022-10-19T13:56:09;1.25;;;0.70;;
22040;SDS011;11184;52.444;13.578;2022-10-19T14:01:48;2.25;;;0.50;;
22040;SDS011;11184;52.444;13.578;2022-10-19T14:04:43;5.70;;;1.10;;
22040;SDS011;11184;52.444;13.578;2022-10-19T14:07:42;1.40;;;0.60;;
22040;SDS011;11184;52.444;13.578;2022-10-19T14:10:30;2.55;;;0.95;;
22040;SDS011;11184;52.444;13.578;2022-10-19T14:13:15;2.95;;;0.75;;
22040;SDS011;11184;52.444;13.578;2022-10-19T14:16:00;0.93;;;0.47;;
22040;SDS011;11184;52.444;13.578;2022-10-19T14:18:51;1.73;;;0.50;;
22040;SDS011;11184;52.444;13.578;2022-10-19T14:21:37;2.65;;;0.60;;
22040;SDS011;11184;52.444;13.578;2022-10-19T14:24:32;1.50;;;0.50;;
22040;SDS011;11184;52.444;13.578;2022-10-19T14:27:18;0.80;;;0.40;;
22040;SDS011;11184;52.444;13.578;2022-10-19T14:30:05;1.23;;;0.75;;
22040;SDS011;11184;52.444;13.578;2022-10-19T14:32:50;2.08;;;0.57;;
22040;SDS011;11184;52.444;13.578;2022-10-19T14:35:36;1.83;;;0.80;;
22040;SDS011;11184;52.444;13.578;2022-10-19T14:38:32;2.03;;;1.08;;
22040;SDS011;11184;52.444;13.578;2022-10-19T14:41:19;3.75;;;1.13;;
22040;SDS011;11184;52.444;13.578;2022-10-19T14:44:20;3.08;;;0.80;;
22040;SDS011;11184;52.444;13.578;2022-10-19T14:47:10;3.22;;;0.65;;
22040;SDS011;11184;52.444;13.578;2022-10-19T14:49:58;4.32;;;0.60;;
22040;SDS011;11184;52.444;13.578;2022-10-19T14:52:43;2.28;;;0.80;;
22040;SDS011;11184;52.444;13.578;2022-10-19T14:55:29;2.58;;;0.77;;
22040;SDS011;11184;52.444;13.578;2022-10-19T14:58:17;2.08;;;0.95;;
22040;SDS011;11184;52.444;13.578;2022-10-19T15:01:02;3.33;;;1.42;;
22040;SDS011;11184;52.444;13.578;2022-10-19T15:03:47;8.85;;;1.02;;
22040;SDS011;11184;52.444;13.578;2022-10-19T15:06:33;3.33;;;0.82;;
22040;SDS011;11184;52.444;13.578;2022-10-19T15:09:26;3.03;;;0.73;;
22040;SDS011;11184;52.444;13.578;2022-10-19T15:12:14;1.33;;;0.60;;
22040;SDS011;11184;52.444;13.578;2022-10-19T15:14:59;3.47;;;0.80;;
22040;SDS011;11184;52.444;13.578;2022-10-19T15:17:49;4.85;;;0.60;;
22040;SDS011;11184;52.444;13.578;2022-10-19T15:20:35;0.50;;;0.50;;
22040;SDS011;11184;52.444;13.578;2022-10-19T15:23:32;4.10;;;0.68;;
22040;SDS011;11184;52.444;13.578;2022-10-19T15:29:09;0.68;;;0.40;;
22040;SDS011;11184;52.444;13.578;2022-10-19T15:31:55;1.08;;;0.70;;
22040;SDS011;11184;52.444;13.578;2022-10-19T15:34:55;0.90;;;0.50;;
22040;SDS011;11184;52.444;13.578;2022-10-19T15:37:40;5.88;;;0.70;;
22040;SDS011;11184;52.444;13.578;2022-10-19T15:40:28;5.97;;;0.90;;
22040;SDS011;11184;52.444;13.578;2022-10-19T15:46:20;6.60;;;1.52;;
22040;SDS011;11184;52.444;13.578;2022-10-19T15:51:59;2.25;;;0.90;;
22040;SDS011;11184;52.444;13.578;2022-10-19T15:54:47;6.80;;;0.98;;
22040;SDS011;11184;52.444;13.578;2022-10-19T15:57:33;1.67;;;1.00;;
22040;SDS011;11184;52.444;13.578;2022-10-19T16:00:18;5.18;;;0.75;;
22040;SDS011;11184;52.444;13.578;2022-10-19T16:03:03;1.35;;;0.70;;
22040;SDS011;11184;52.444;13.578;2022-10-19T16:05:48;5.40;;;1.05;;
22040;SDS011;11184;52.444;13.578;2022-10-19T16:08:32;6.57;;;1.60;;
22040;SDS011;11184;52.444;13.578;2022-10-19T16:11:17;4.07;;;1.00;;
22040;SDS011;11184;52.444;13.578;2022-10-19T16:14:02;12.35;;;1.83;;
22040;SDS011;11184;52.444;13.578;2022-10-19T16:16:47;8.75;;;4.78;;
22040;SDS011;11184;52.444;13.578;2022-10-19T16:19:32;8.20;;;4.43;;
22040;SDS011;11184;52.444;13.578;2022-10-19T16:22:17;4.93;;;3.05;;
22040;SDS011;11184;52.444;13.578;2022-10-19T16:25:01;3.72;;;3.45;;
22040;SDS011;11184;52.444;13.578;2022-10-19T16:27:46;10.10;;;4.72;;
22040;SDS011;11184;52.444;13.578;2022-10-19T16:30:31;7.68;;;5.05;;
22040;SDS011;11184;52.444;13.578;2022-10-19T16:33:15;9.73;;;3.63;;
22040;SDS011;11184;52.444;13.578;2022-10-19T16:36:06;5.85;;;2.38;;
22040;SDS011;11184;52.444;13.578;2022-10-19T16:38:51;3.20;;;2.90;;
22040;SDS011;11184;52.444;13.578;2022-10-19T16:41:36;3.65;;;2.33;;
22040;SDS011;11184;52.444;13.578;2022-10-19T16:44:20;5.63;;;1.70;;
22040;SDS011;11184;52.444;13.578;2022-10-19T16:47:05;3.97;;;1.95;;
22040;SDS011;11184;52.444;13.578;2022-10-19T16:49:56;5.80;;;3.85;;
22040;SDS011;11184;52.444;13.578;2022-10-19T16:52:41;5.75;;;4.72;;
22040;SDS011;11184;52.444;13.578;2022-10-19T16:55:27;9.93;;;4.00;;
22040;SDS011;11184;52.444;13.578;2022-10-19T16:58:12;10.18;;;3.47;;
22040;SDS011;11184;52.444;13.578;2022-10-19T17:00:56;6.00;;;3.70;;
22040;SDS011;11184;52.444;13.578;2022-10-19T17:03:44;3.55;;;3.03;;
22040;SDS011;11184;52.444;13.578;2022-10-19T17:06:29;7.60;;;3.20;;
22040;SDS011;11184;52.444;13.578;2022-10-19T17:09:13;14.25;;;5.53;;
22040;SDS011;11184;52.444;13.578;2022-10-19T17:11:58;5.95;;;3.38;;
22040;SDS011;11184;52.444;13.578;2022-10-19T17:14:42;8.48;;;4.68;;
22040;SDS011;11184;52.444;13.578;2022-10-19T17:17:27;13.30;;;4.55;;
22040;SDS011;11184;52.444;13.578;2022-10-19T17:20:12;10.25;;;5.05;;
22040;SDS011;11184;52.444;13.578;2022-10-19T17:22:58;7.88;;;5.30;;
22040;SDS011;11184;52.444;13.578;2022-10-19T17:25:46;12.23;;;5.15;;
22040;SDS011;11184;52.444;13.578;2022-10-19T17:28:31;8.63;;;5.13;;
22040;SDS011;11184;52.444;13.578;2022-10-19T17:31:16;11.07;;;5.15;;
22040;SDS011;11184;52.444;13.578;2022-10-19T17:34:01;9.68;;;5.03;;
22040;SDS011;11184;52.444;13.578;2022-10-19T17:36:46;9.35;;;5.18;;
22040;SDS011;11184;52.444;13.578;2022-10-19T17:39:30;11.50;;;5.75;;
22040;SDS011;11184;52.444;13.578;2022-10-19T17:42:15;9.57;;;6.25;;
22040;SDS011;11184;52.444;13.578;2022-10-19T17:45:00;8.63;;;6.15;;